Time;durP1;ratioP1;P1;durP2;ratioP2;P2;SDS_P1;SDS_P2;PMS_P1;PMS_P2;Temp;Humidity;BMP_temperature;BMP_pressure;BME280_temperature;BME280_humidity;BME280_pressure;Samples;Min_cycle;Max_cycle;Signal;HPM_P1;HPM_P2
2022/04/11 00:02:07;;;;;;;9.80;1.80;;;;;;;2.75;73.37;100581.89;106035;1271;26619;-54
2022/04/11 00:04:39;;;;;;;11.00;1.40;;;;;;;2.72;73.55;100576.41;106096;1271;22531;-54
2022/04/11 00:07:10;;;;;;;7.80;1.20;;;;;;;2.67;73.66;100575.38;105941;1271;22546;-55
2022/04/11 00:09:43;;;;;;;9.80;1.20;;;;;;;2.66;73.61;100575.73;105919;1271;22598;-51
2022/04/11 00:12:16;;;;;;;7.30;1.20;;;;;;;2.63;73.70;100572.86;106019;1271;24516;-55
2022/04/11 00:14:47;;;;;;;5.60;1.00;;;;;;;2.61;73.99;100576.60;106051;1272;22549;-54
2022/04/11 00:17:19;;;;;;;6.40;1.20;;;;;;;2.59;73.96;100578.45;106090;1271;25299;-51
2022/04/11 00:19:52;;;;;;;5.50;1.30;;;;;;;2.57;74.11;100576.26;106455;1271;22571;-54
2022/04/11 00:22:23;;;;;;;8.10;1.30;;;;;;;2.55;73.89;100571.40;106025;1271;24239;-54
2022/04/11 00:24:55;;;;;;;7.90;1.50;;;;;;;2.52;74.00;100576.02;106178;1271;22868;-51
2022/04/11 00:27:26;;;;;;;7.90;1.70;;;;;;;2.48;74.02;100570.48;106144;1271;22613;-52
2022/04/11 00:29:57;;;;;;;7.30;1.30;;;;;;;2.44;74.02;100580.55;105987;1271;23407;-53
2022/04/11 00:32:31;;;;;;;5.00;1.00;;;;;;;2.40;74.34;100581.70;106358;1271;25366;-51
2022/04/11 00:35:07;;;;;;;11.30;2.00;;;;;;;2.37;74.56;100578.98;106260;1270;24644;-52
2022/04/11 00:37:39;;;;;;;9.50;1.50;;;;;;;2.35;74.52;100584.52;106160;1271;22574;-54
2022/04/11 00:40:13;;;;;;;11.90;1.80;;;;;;;2.33;74.63;100583.85;106036;1271;22625;-54
2022/04/11 00:42:44;;;;;;;10.60;2.30;;;;;;;2.32;74.80;100589.36;105990;1271;22563;-53
2022/04/11 00:45:16;;;;;;;10.00;2.00;;;;;;;2.32;74.92;100590.08;105938;1271;22555;-51
2022/04/11 00:47:48;;;;;;;8.70;2.30;;;;;;;2.33;74.98;100589.99;105945;1271;22566;-55
2022/04/11 00:50:19;;;;;;;12.10;2.30;;;;;;;2.34;75.00;100591.38;106063;1271;26048;-51
2022/04/11 00:52:54;;;;;;;14.90;2.30;;;;;;;2.34;75.11;100597.75;106174;1271;22650;-51
2022/04/11 00:55:28;;;;;;;14.40;2.50;;;;;;;2.33;74.94;100596.59;106022;1271;22544;-54
2022/04/11 00:58:00;;;;;;;15.80;2.50;;;;;;;2.32;75.01;100606.36;106082;1271;25226;-55
2022/04/11 01:00:34;;;;;;;9.90;1.90;;;;;;;2.30;74.87;100602.23;106202;1271;23337;-54
2022/04/11 01:03:06;;;;;;;11.30;2.00;;;;;;;2.27;74.93;100603.77;106047;1271;22544;-54
2022/04/11 01:05:38;;;;;;;11.30;1.70;;;;;;;2.24;74.97;100604.59;106168;1270;22556;-52
2022/04/11 01:08:11;;;;;;;9.70;1.80;;;;;;;2.21;75.09;100600.38;106126;1271;25497;-55
2022/04/11 01:10:44;;;;;;;11.00;2.00;;;;;;;2.19;75.00;100605.27;106040;1270;22555;-53
2022/04/11 01:13:17;;;;;;;9.50;1.70;;;;;;;2.18;74.97;100605.08;106111;1271;22844;-52
2022/04/11 01:15:57;;;;;;;10.00;2.30;;;;;;;2.15;74.92;100605.26;106025;1271;25640;-53
2022/04/11 01:18:29;;;;;;;10.60;2.40;;;;;;;2.10;75.02;100602.81;106078;1270;22653;-53
2022/04/11 01:21:00;;;;;;;12.80;2.70;;;;;;;2.05;75.18;100607.13;106166;1270;24385;-54
2022/04/11 01:23:32;;;;;;;9.60;2.30;;;;;;;2.01;75.18;100613.06;106054;1270;22652;-55
2022/04/11 01:26:06;;;;;;;10.70;2.70;;;;;;;1.98;75.27;100617.82;106231;1270;24215;-55
2022/04/11 01:28:39;;;;;;;12.20;2.30;;;;;;;1.95;75.20;100617.15;105998;1271;22557;-51
2022/04/11 01:31:10;;;;;;;12.90;2.60;;;;;;;1.90;75.30;100616.27;106068;1270;24852;-51
2022/04/11 01:33:43;;;;;;;8.60;1.80;;;;;;;1.86;75.48;100618.92;105981;1271;22695;-54
2022/04/11 01:36:16;;;;;;;12.60;2.60;;;;;;;1.83;75.53;100617.23;106029;1270;25411;-51
2022/04/11 01:38:48;;;;;;;9.90;2.70;;;;;;;1.81;75.53;100616.77;106003;1271;22678;-53
2022/04/11 01:41:20;;;;;;;13.50;2.70;;;;;;;1.79;75.54;100622.86;105950;1270;25370;-50
2022/04/11 01:43:52;;;;;;;12.00;3.00;;;;;;;1.75;75.62;100625.34;106028;1270;23463;-54
2022/04/11 01:46:23;;;;;;;9.90;2.40;;;;;;;1.70;75.79;100623.10;105898;1270;22532;-54
2022/04/11 01:48:55;;;;;;;9.40;2.50;;;;;;;1.66;75.86;100624.64;106028;1271;24402;-52
2022/04/11 01:51:27;;;;;;;9.40;2.40;;;;;;;1.61;76.02;100627.52;106104;1271;22540;-52
2022/04/11 01:53:59;;;;;;;10.20;2.20;;;;;;;1.58;76.10;100628.49;106031;1270;25242;-55
2022/04/11 01:56:31;;;;;;;11.50;3.20;;;;;;;1.55;76.28;100622.86;106081;1270;25509;-55
2022/04/11 01:59:02;;;;;;;11.50;2.50;;;;;;;1.54;76.35;100626.11;106016;1270;22547;-51
2022/04/11 02:01:33;;;;;;;9.50;2.20;;;;;;;1.53;76.53;100624.77;106042;1271;24380;-53
2022/04/11 02:04:07;;;;;;;9.50;2.70;;;;;;;1.52;76.65;100631.15;106046;1270;24291;-52
2022/04/11 02:06:39;;;;;;;15.50;3.50;;;;;;;1.52;76.76;100631.39;105882;1270;24906;-53
2022/04/11 02:09:10;;;;;;;12.40;3.00;;;;;;;1.52;76.71;100630.84;106030;1271;22471;-55
2022/04/11 02:11:43;;;;;;;10.50;2.40;;;;;;;1.51;76.69;100630.30;105903;1270;22551;-55
2022/04/11 02:14:15;;;;;;;13.70;2.60;;;;;;;1.51;76.72;100628.34;105951;1270;25725;-52
2022/04/11 02:16:46;;;;;;;10.60;2.80;;;;;;;1.50;76.72;100637.54;106076;1271;22612;-51
2022/04/11 02:19:18;;;;;;;10.60;2.80;;;;;;;1.50;76.72;100641.31;105965;1269;22525;-53
2022/04/11 02:21:50;;;;;;;11.30;2.00;;;;;;;1.50;76.62;100635.98;106032;1271;22534;-52
2022/04/11 02:24:22;;;;;;;10.90;2.50;;;;;;;1.50;76.63;100640.67;105949;1271;22615;-52
2022/04/11 02:26:53;;;;;;;11.60;2.60;;;;;;;1.48;76.85;100644.23;105976;1271;22681;-56
2022/04/11 02:29:25;;;;;;;9.40;2.20;;;;;;;1.46;76.78;100643.70;105964;1271;22476;-54
2022/04/11 02:31:56;;;;;;;11.00;2.10;;;;;;;1.47;76.81;100651.09;106111;1271;26890;-53
2022/04/11 02:34:29;;;;;;;12.30;2.50;;;;;;;1.47;76.85;100646.84;105962;1271;23096;-52
2022/04/11 02:37:00;;;;;;;11.30;3.20;;;;;;;1.47;76.93;100648.57;106052;1270;22548;-55
2022/04/11 02:39:33;;;;;;;10.00;2.60;;;;;;;1.44;77.13;100645.77;105992;1271;22697;-51
2022/04/11 02:42:05;;;;;;;9.30;2.90;;;;;;;1.42;77.17;100644.38;106586;1258;22525;-57
2022/04/11 02:44:38;;;;;;;10.20;3.20;;;;;;;1.41;77.29;100645.40;106149;1268;24332;-57
2022/04/11 02:47:09;;;;;;;12.20;2.60;;;;;;;1.40;77.29;100648.01;106356;1268;22710;-55
2022/04/11 02:49:41;;;;;;;11.80;2.40;;;;;;;1.40;77.47;100645.90;107990;1271;22534;-54
2022/04/11 02:52:13;;;;;;;10.00;2.20;;;;;;;1.39;77.28;100644.55;106168;1271;22522;-55
2022/04/11 02:54:44;;;;;;;10.70;2.30;;;;;;;1.39;77.48;100645.65;106175;1270;24233;-56
2022/04/11 02:57:15;;;;;;;10.00;2.70;;;;;;;1.40;77.61;100645.19;106055;1271;23002;-58
2022/04/11 02:59:47;;;;;;;12.00;2.80;;;;;;;1.40;77.67;100641.73;106649;1270;25490;-55
2022/04/11 03:02:19;;;;;;;9.10;2.80;;;;;;;1.41;77.64;100638.25;108363;1269;25349;-55
2022/04/11 03:04:50;;;;;;;12.10;2.80;;;;;;;1.43;77.59;100636.41;105904;1271;22541;-57
2022/04/11 03:07:22;;;;;;;8.60;2.40;;;;;;;1.45;77.47;100631.45;106005;1270;22588;-56
2022/04/11 03:09:54;;;;;;;11.60;2.30;;;;;;;1.47;77.36;100638.27;105954;1271;22540;-57
2022/04/11 03:12:27;;;;;;;13.60;2.20;;;;;;;1.47;77.42;100650.30;106103;1271;25433;-56
2022/04/11 03:14:58;;;;;;;10.70;2.70;;;;;;;1.47;77.28;100651.17;105956;1269;26770;-54
2022/04/11 03:17:31;;;;;;;12.10;2.20;;;;;;;1.47;77.43;100652.34;106053;1271;22664;-56
2022/04/11 03:20:03;;;;;;;11.70;2.70;;;;;;;1.47;77.52;100651.40;106120;1271;22544;-58
2022/04/11 03:22:34;;;;;;;9.20;2.20;;;;;;;1.48;77.59;100652.27;106303;1269;24358;-55
2022/04/11 03:25:09;;;;;;;13.80;2.20;;;;;;;1.48;77.66;100653.20;106073;1271;22576;-57
2022/04/11 03:27:40;;;;;;;14.00;3.10;;;;;;;1.51;77.66;100654.35;106011;1270;23071;-57
2022/04/11 03:30:13;;;;;;;10.00;2.60;;;;;;;1.52;77.77;100652.70;105986;1271;22526;-59
2022/04/11 03:32:45;;;;;;;13.30;2.60;;;;;;;1.55;77.75;100652.98;106361;1271;23984;-58
2022/04/11 03:35:16;;;;;;;11.10;2.70;;;;;;;1.57;77.87;100649.73;105992;1271;22551;-54
2022/04/11 03:37:48;;;;;;;12.40;2.60;;;;;;;1.59;77.95;100653.95;106054;1271;23716;-56
2022/04/11 03:40:19;;;;;;;7.60;2.30;;;;;;;1.61;78.11;100657.63;106400;1271;23421;-57
2022/04/11 03:42:50;;;;;;;13.90;3.20;;;;;;;1.63;78.12;100658.01;106000;1271;22531;-57
2022/04/11 03:45:22;;;;;;;12.90;2.60;;;;;;;1.65;78.16;100657.91;105898;1271;25479;-57
2022/04/11 03:47:53;;;;;;;12.80;2.80;;;;;;;1.66;78.26;100656.48;105912;1271;22736;-55
2022/04/11 03:50:25;;;;;;;13.60;4.20;;;;;;;1.69;78.29;100654.98;106006;1271;22527;-56
2022/04/11 03:52:57;;;;;;;14.00;3.00;;;;;;;1.72;78.29;100648.02;106220;1271;24259;-55
2022/04/11 03:55:28;;;;;;;16.40;3.20;;;;;;;1.75;78.34;100652.61;106047;1270;24288;-55
2022/04/11 03:58:00;;;;;;;12.50;3.00;;;;;;;1.78;78.37;100649.59;106236;1271;24344;-57
2022/04/11 04:00:32;;;;;;;15.00;2.80;;;;;;;1.81;78.36;100649.88;106063;1271;23094;-55
2022/04/11 04:03:09;;;;;;;11.50;3.30;;;;;;;1.81;78.35;100648.92;105996;1271;25595;-55
2022/04/11 04:05:44;;;;;;;18.80;3.10;;;;;;;1.84;78.52;100650.96;106024;1271;22611;-57
2022/04/11 04:08:17;;;;;;;11.70;3.20;;;;;;;1.85;78.54;100651.49;106141;1271;24257;-58
2022/04/11 04:10:48;;;;;;;17.60;3.10;;;;;;;1.88;78.46;100654.14;106317;1271;22581;-55
2022/04/11 04:13:20;;;;;;;13.40;3.30;;;;;;;1.91;78.58;100662.36;106133;1271;24327;-54
2022/04/11 04:15:51;;;;;;;10.50;2.90;;;;;;;1.93;78.65;100660.60;106016;1271;25553;-56
2022/04/11 04:18:23;;;;;;;12.00;2.50;;;;;;;1.95;78.65;100666.09;106178;1270;24006;-57
2022/04/11 04:20:55;;;;;;;14.30;2.80;;;;;;;1.99;78.68;100667.30;106174;1271;25826;-55
2022/04/11 04:23:26;;;;;;;12.40;2.70;;;;;;;2.02;78.69;100671.83;106269;1271;22529;-56
2022/04/11 04:25:58;;;;;;;10.10;2.00;;;;;;;2.05;78.73;100674.48;106134;1271;24272;-56
2022/04/11 04:28:29;;;;;;;10.10;2.20;;;;;;;2.07;78.73;100676.80;106200;1271;22571;-54
2022/04/11 04:31:01;;;;;;;12.90;2.20;;;;;;;2.10;78.75;100679.85;105933;1271;22538;-57
2022/04/11 04:33:34;;;;;;;14.40;2.10;;;;;;;2.12;78.82;100683.45;106020;1271;22655;-56
2022/04/11 04:36:06;;;;;;;12.90;2.10;;;;;;;2.15;78.87;100687.65;106132;1271;24228;-56
2022/04/11 04:38:39;;;;;;;8.30;1.70;;;;;;;2.17;78.86;100691.40;106095;1271;22691;-54
2022/04/11 04:41:11;;;;;;;17.50;3.00;;;;;;;2.20;78.93;100698.30;106116;1271;22553;-57
2022/04/11 04:43:43;;;;;;;11.50;2.30;;;;;;;2.24;78.83;100702.89;106455;1271;22754;-58
2022/04/11 04:46:16;;;;;;;11.80;2.40;;;;;;;2.26;78.82;100703.52;105986;1271;22541;-55
2022/04/11 04:48:47;;;;;;;7.90;1.70;;;;;;;2.30;78.88;100705.42;106934;1269;25595;-57
2022/04/11 04:51:21;;;;;;;9.40;1.70;;;;;;;2.33;78.94;100707.98;106729;1269;24227;-57
2022/04/11 04:53:54;;;;;;;11.70;2.10;;;;;;;2.38;79.00;100714.92;105948;1270;22553;-56
2022/04/11 04:56:29;;;;;;;11.90;1.90;;;;;;;2.42;78.96;100711.33;106114;1271;22541;-57
2022/04/11 04:59:01;;;;;;;10.40;2.10;;;;;;;2.48;78.97;100717.33;106090;1271;25349;-57
2022/04/11 05:01:32;;;;;;;11.60;2.00;;;;;;;2.52;78.97;100715.39;106120;1271;22612;-56
2022/04/11 05:04:04;;;;;;;10.60;1.80;;;;;;;2.57;78.89;100718.70;106194;1271;24253;-55
2022/04/11 05:06:36;;;;;;;16.10;2.20;;;;;;;2.61;78.89;100718.42;106700;1270;22525;-55
2022/04/11 05:09:07;;;;;;;10.90;2.30;;;;;;;2.65;78.90;100716.56;105984;1271;22528;-56
2022/04/11 05:11:40;;;;;;;7.30;1.60;;;;;;;2.69;78.92;100713.75;106167;1270;22717;-57
2022/04/11 05:14:12;;;;;;;10.30;1.70;;;;;;;2.74;78.88;100707.92;106134;1269;22662;-57
2022/04/11 05:16:43;;;;;;;10.20;1.90;;;;;;;2.79;78.66;100708.02;106216;1271;22538;-58
2022/04/11 05:19:15;;;;;;;12.30;1.80;;;;;;;2.84;78.80;100708.35;106049;1271;22550;-55
2022/04/11 05:21:46;;;;;;;8.90;1.70;;;;;;;2.89;78.67;100710.64;106032;1271;22558;-57
2022/04/11 05:24:18;;;;;;;11.50;1.60;;;;;;;2.94;78.71;100709.77;105968;1271;22549;-55
2022/04/11 05:26:50;;;;;;;9.30;1.60;;;;;;;2.99;78.70;100711.36;106091;1270;22551;-59
2022/04/11 05:29:21;;;;;;;10.90;2.00;;;;;;;3.05;78.61;100715.35;106180;1270;24357;-57
2022/04/11 05:31:54;;;;;;;12.30;1.90;;;;;;;3.09;78.43;100719.70;106134;1270;22571;-56
2022/04/11 05:34:25;;;;;;;14.30;1.80;;;;;;;3.14;78.41;100721.60;105981;1271;24258;-57
2022/04/11 05:36:56;;;;;;;9.50;1.80;;;;;;;3.19;78.16;100723.59;106081;1270;22953;-56
2022/04/11 05:39:30;;;;;;;10.70;1.80;;;;;;;3.24;78.23;100723.66;106018;1271;26020;-58
2022/04/11 05:42:01;;;;;;;14.80;1.90;;;;;;;3.28;78.10;100725.73;106155;1271;22620;-56
2022/04/11 05:44:33;;;;;;;11.00;1.50;;;;;;;3.32;77.84;100730.80;106092;1270;24224;-56
2022/04/11 05:47:05;;;;;;;14.60;2.40;;;;;;;3.35;77.79;100729.41;106110;1271;24352;-58
2022/04/11 05:49:39;;;;;;;10.60;1.70;;;;;;;3.41;77.85;100731.05;106082;1271;22634;-56
2022/04/11 05:52:14;;;;;;;9.10;1.60;;;;;;;3.45;77.84;100729.24;106114;1271;22543;-59
2022/04/11 05:54:45;;;;;;;10.80;1.90;;;;;;;3.50;77.68;100729.23;106035;1271;25269;-54
2022/04/11 05:57:17;;;;;;;11.70;2.00;;;;;;;3.56;77.66;100731.67;106053;1271;22691;-57
2022/04/11 05:59:48;;;;;;;12.50;2.20;;;;;;;3.63;77.75;100730.30;106072;1271;24227;-56
2022/04/11 06:02:20;;;;;;;9.50;1.70;;;;;;;3.69;77.37;100733.59;105985;1269;25273;-57
2022/04/11 06:04:51;;;;;;;72.50;11.00;;;;;;;3.74;77.30;100737.52;106155;1271;25349;-56
2022/04/11 06:07:25;;;;;;;11.80;1.80;;;;;;;3.79;76.88;100740.35;108268;1270;25377;-56
2022/04/11 06:09:56;;;;;;;15.50;2.20;;;;;;;3.84;76.90;100737.34;106029;1270;27051;-56
2022/04/11 06:12:29;;;;;;;14.40;1.90;;;;;;;3.89;76.81;100737.73;106139;1269;24508;-57
2022/04/11 06:15:01;;;;;;;14.30;1.70;;;;;;;3.95;76.72;100739.98;106040;1271;22526;-55
2022/04/11 06:17:33;;;;;;;7.90;1.30;;;;;;;3.99;76.53;100738.33;105972;1271;22659;-55
2022/04/11 06:20:06;;;;;;;10.10;1.40;;;;;;;4.04;76.38;100744.15;106102;1271;22544;-55
2022/04/11 06:22:42;;;;;;;13.50;1.50;;;;;;;4.09;76.16;100746.99;106277;1271;25565;-55
2022/04/11 06:25:14;;;;;;;10.30;1.50;;;;;;;4.13;76.13;100746.61;106071;1271;23840;-57
2022/04/11 06:27:46;;;;;;;18.00;1.80;;;;;;;4.18;76.06;100747.94;106193;1270;22576;-56
2022/04/11 06:30:18;;;;;;;10.10;1.30;;;;;;;4.22;75.84;100745.49;106070;1271;25409;-56
2022/04/11 06:32:49;;;;;;;7.80;1.20;;;;;;;4.25;75.71;100747.17;106108;1271;25277;-57
2022/04/11 06:35:21;;;;;;;14.00;1.70;;;;;;;4.29;75.68;100747.34;106156;1271;22544;-57
2022/04/11 06:37:52;;;;;;;11.20;1.30;;;;;;;4.33;75.76;100750.32;106068;1270;23264;-56
2022/04/11 06:40:24;;;;;;;8.60;1.40;;;;;;;4.36;75.18;100745.77;106009;1271;22551;-57
2022/04/11 06:42:55;;;;;;;5.80;1.50;;;;;;;4.39;75.34;100741.76;106055;1271;25531;-57
2022/04/11 06:45:27;;;;;;;9.00;1.50;;;;;;;4.42;75.22;100744.88;106171;1271;25255;-55
2022/04/11 06:47:59;;;;;;;8.90;1.30;;;;;;;4.43;75.08;100747.53;106152;1271;24436;-54
2022/04/11 06:50:31;;;;;;;9.40;1.10;;;;;;;4.44;74.91;100746.58;106159;1271;22544;-57
2022/04/11 06:53:03;;;;;;;14.00;1.50;;;;;;;4.45;74.76;100748.36;106381;1270;25522;-58
2022/04/11 06:55:34;;;;;;;7.00;1.10;;;;;;;4.46;74.67;100742.73;106271;1271;25230;-54
2022/04/11 06:58:07;;;;;;;10.40;1.30;;;;;;;4.47;74.49;100745.47;106086;1271;22616;-56
2022/04/11 07:00:39;;;;;;;9.80;1.30;;;;;;;4.47;74.22;100744.61;106132;1271;22531;-57
2022/04/11 07:03:12;;;;;;;11.60;1.20;;;;;;;4.50;74.71;100746.28;106255;1270;25599;-58
2022/04/11 07:05:44;;;;;;;7.20;1.00;;;;;;;4.57;74.61;100746.54;106170;1271;22969;-59
2022/04/11 07:08:16;;;;;;;8.00;1.00;;;;;;;4.67;74.33;100743.31;106070;1270;22559;-56
2022/04/11 07:10:48;;;;;;;7.60;0.80;;;;;;;4.77;74.35;100747.78;106068;1270;22529;-56
2022/04/11 07:13:20;;;;;;;7.90;1.40;;;;;;;4.90;74.37;100749.08;106150;1270;25217;-58
2022/04/11 07:15:52;;;;;;;8.60;1.10;;;;;;;4.99;73.76;100748.81;106171;1270;24309;-56
2022/04/11 07:18:27;;;;;;;11.10;2.10;;;;;;;5.00;73.11;100749.09;106114;1271;25228;-57
2022/04/11 07:20:59;;;;;;;5.90;0.90;;;;;;;5.07;73.67;100750.83;106180;1270;22780;-56
2022/04/11 07:23:30;;;;;;;14.50;1.30;;;;;;;5.17;72.98;100750.15;106218;1269;24440;-57
2022/04/11 07:26:02;;;;;;;9.40;0.90;;;;;;;5.21;72.83;100751.15;106325;1270;22543;-55
2022/04/11 07:28:34;;;;;;;9.90;1.00;;;;;;;5.24;73.03;100748.48;106131;1271;24405;-57
2022/04/11 07:31:08;;;;;;;6.40;1.10;;;;;;;5.32;73.13;100749.71;106232;1271;22557;-57
2022/04/11 07:33:40;;;;;;;8.60;1.20;;;;;;;5.40;72.41;100746.84;106080;1270;24381;-56
2022/04/11 07:36:12;;;;;;;7.70;0.80;;;;;;;5.48;72.72;100751.38;106324;1271;25366;-57
2022/04/11 07:38:45;;;;;;;8.60;1.10;;;;;;;5.59;72.29;100754.91;106138;1271;22820;-56
2022/04/11 07:41:17;;;;;;;8.70;1.50;;;;;;;5.67;71.42;100752.96;106129;1270;22522;-55
2022/04/11 07:43:50;;;;;;;7.20;1.20;;;;;;;5.76;71.32;100751.73;106152;1271;22537;-57
2022/04/11 07:46:21;;;;;;;7.70;0.80;;;;;;;5.88;70.49;100755.73;106173;1271;22689;-57
2022/04/11 07:48:53;;;;;;;5.90;0.60;;;;;;;6.00;70.90;100751.69;106039;1270;24439;-56
2022/04/11 07:51:25;;;;;;;8.60;0.90;;;;;;;6.10;69.97;100750.89;106169;1271;22545;-56
2022/04/11 07:53:56;;;;;;;8.70;1.50;;;;;;;6.16;69.63;100754.83;106034;1271;25352;-56
2022/04/11 07:56:30;;;;;;;10.50;1.00;;;;;;;6.25;69.89;100753.64;106414;1271;22694;-57
2022/04/11 07:59:01;;;;;;;4.00;0.70;;;;;;;6.28;69.61;100758.08;106222;1270;22539;-57
2022/04/11 08:01:33;;;;;;;8.10;0.70;;;;;;;6.31;69.31;100754.92;106323;1271;24662;-57
2022/04/11 08:04:05;;;;;;;5.80;0.80;;;;;;;6.35;68.95;100755.98;106260;1271;24663;-58
2022/04/11 08:06:37;;;;;;;5.20;0.40;;;;;;;6.47;68.56;100752.55;106180;1271;26207;-57
2022/04/11 08:09:08;;;;;;;4.80;0.50;;;;;;;6.61;66.72;100753.84;106012;1271;22529;-55
2022/04/11 08:11:40;;;;;;;3.00;0.50;;;;;;;6.62;67.46;100759.34;106268;1271;23089;-56
2022/04/11 08:14:12;;;;;;;2.50;0.50;;;;;;;6.58;67.23;100762.09;106261;1270;22535;-57
2022/04/11 08:16:43;;;;;;;4.00;0.50;;;;;;;6.52;67.64;100765.40;106281;1269;22525;-58
2022/04/11 08:19:15;;;;;;;4.20;0.60;;;;;;;6.51;67.39;100765.98;106122;1271;24440;-54
2022/04/11 08:21:46;;;;;;;2.60;0.50;;;;;;;6.57;67.61;100766.54;106382;1271;22551;-57
2022/04/11 08:24:18;;;;;;;5.00;0.70;;;;;;;6.66;67.48;100765.27;106162;1271;24829;-59
2022/04/11 08:26:49;;;;;;;5.90;0.60;;;;;;;6.73;67.36;100763.86;106246;1271;22612;-58
2022/04/11 08:29:21;;;;;;;7.70;0.60;;;;;;;6.86;67.24;100766.35;106132;1271;22533;-57
2022/04/11 08:31:53;;;;;;;8.70;0.40;;;;;;;6.96;66.38;100764.48;106205;1270;22553;-57
2022/04/11 08:34:24;;;;;;;2.70;0.40;;;;;;;7.03;65.11;100766.95;106145;1270;24298;-56
2022/04/11 08:36:56;;;;;;;3.60;0.60;;;;;;;7.14;62.65;100770.09;106454;1271;24377;-56
2022/04/11 08:39:27;;;;;;;2.60;0.30;;;;;;;7.23;64.36;100774.89;106273;1270;22704;-56
2022/04/11 08:42:02;;;;;;;4.30;0.40;;;;;;;7.28;63.66;100776.80;106300;1270;22615;-55
2022/04/11 08:44:36;;;;;;;3.80;0.30;;;;;;;7.28;63.02;100775.45;106783;1260;22549;-50
2022/04/11 08:47:09;;;;;;;3.60;0.40;;;;;;;7.29;63.06;100775.42;106322;1268;22666;-56
2022/04/11 08:49:41;;;;;;;4.00;0.40;;;;;;;7.38;63.43;100779.21;106133;1270;25229;-50
2022/04/11 08:52:14;;;;;;;4.80;0.40;;;;;;;7.50;61.78;100780.59;106160;1271;24325;-51
2022/04/11 08:54:46;;;;;;;4.50;0.50;;;;;;;7.54;62.46;100778.45;106278;1271;24221;-53
2022/04/11 08:57:18;;;;;;;4.60;0.40;;;;;;;7.55;62.02;100782.85;106248;1270;25327;-54
2022/04/11 08:59:51;;;;;;;5.50;0.60;;;;;;;7.56;61.98;100778.39;106164;1270;22561;-54
2022/04/11 09:02:33;;;;;;;7.50;0.50;;;;;;;7.64;61.82;100775.35;106280;1271;24414;-53
2022/04/11 09:05:06;;;;;;;4.70;0.50;;;;;;;7.80;62.01;100775.63;106074;1271;22556;-56
2022/04/11 09:07:50;;;;;;;7.10;0.50;;;;;;;7.98;61.39;100773.64;106082;1270;26306;-52
2022/04/11 09:10:29;;;;;;;8.20;0.60;;;;;;;8.13;60.99;100770.21;106551;1271;25290;-52
2022/04/11 09:13:02;;;;;;;6.00;0.60;;;;;;;8.16;60.41;100771.14;106121;1270;24566;-52
2022/04/11 09:15:41;;;;;;;4.70;0.30;;;;;;;8.13;60.17;100767.49;106187;1270;22613;-51
2022/04/11 09:18:13;;;;;;;3.80;0.60;;;;;;;8.10;58.73;100771.88;106096;1271;22547;-51
2022/04/11 09:20:47;;;;;;;3.30;0.50;;;;;;;8.07;58.55;100773.59;106234;1271;22637;-53
2022/04/11 09:23:23;;;;;;;5.90;0.50;;;;;;;8.09;58.37;100770.66;106096;1270;22552;-53
2022/04/11 09:25:54;;;;;;;7.40;0.60;;;;;;;8.12;58.49;100777.25;106006;1270;26238;-52
2022/04/11 09:28:26;;;;;;;3.30;0.40;;;;;;;8.12;57.65;100774.90;106206;1271;25345;-51
2022/04/11 09:31:06;;;;;;;1.90;0.40;;;;;;;8.12;56.92;100776.69;106180;1271;22533;-55
2022/04/11 09:33:43;;;;;;;6.60;0.30;;;;;;;8.12;56.88;100772.06;105958;1271;284688;-50
2022/04/11 09:36:16;;;;;;;3.90;0.50;;;;;;;8.16;55.95;100775.90;106011;1271;22547;-53
2022/04/11 09:38:59;;;;;;;5.10;0.40;;;;;;;8.27;56.38;100774.36;106126;1271;24282;-52
2022/04/11 09:41:34;;;;;;;4.10;0.40;;;;;;;8.38;56.52;100772.63;106352;1271;22850;-55
2022/04/11 09:44:23;;;;;;;4.30;0.60;;;;;;;8.49;55.97;100767.85;106260;1271;22544;-58
2022/04/11 09:46:55;;;;;;;3.60;0.40;;;;;;;8.67;55.64;100767.60;106275;1270;22796;-51
2022/04/11 09:49:27;;;;;;;4.20;0.50;;;;;;;8.76;55.13;100768.70;106579;1270;22516;-55
2022/04/11 09:52:11;;;;;;;5.20;0.60;;;;;;;8.78;55.14;100769.40;106668;1269;22546;-56
2022/04/11 09:54:44;;;;;;;4.60;0.40;;;;;;;8.85;54.81;100770.73;106397;1271;22600;-55
2022/04/11 09:57:17;;;;;;;4.70;0.50;;;;;;;8.85;53.47;100767.38;106247;1271;22748;-52
2022/04/11 09:59:50;;;;;;;2.80;0.40;;;;;;;8.75;53.71;100766.97;106377;1270;22884;-54
2022/04/11 10:02:24;;;;;;;2.80;0.40;;;;;;;8.74;54.36;100761.92;106329;1270;24678;-54
2022/04/11 10:04:58;;;;;;;3.80;0.40;;;;;;;8.79;53.76;100760.40;106480;1271;22704;-54
2022/04/11 10:07:30;;;;;;;4.30;0.40;;;;;;;8.79;53.17;100754.89;106782;1270;24769;-53
2022/04/11 10:10:03;;;;;;;6.00;0.40;;;;;;;8.86;52.90;100752.15;106429;1270;22593;-55
2022/04/11 10:12:35;;;;;;;3.00;0.60;;;;;;;8.97;52.66;100748.64;106414;1269;24255;-53
2022/04/11 10:15:09;;;;;;;8.10;0.50;;;;;;;9.08;53.39;100749.84;106543;1271;22645;-55
2022/04/11 10:17:40;;;;;;;2.60;0.50;;;;;;;9.19;52.95;100747.31;106401;1270;22528;-55
2022/04/11 10:20:13;;;;;;;4.70;0.50;;;;;;;9.24;52.27;100751.64;106480;1271;23191;-52
2022/04/11 10:22:55;;;;;;;4.50;0.50;;;;;;;9.17;52.39;100753.77;106486;1271;24530;-52
2022/04/11 10:25:28;;;;;;;3.40;0.40;;;;;;;9.05;52.83;100748.17;106349;1270;22568;-54
2022/04/11 10:31:09;;;;;;;6.00;0.50;;;;;;;8.92;53.70;100743.12;102590;1309;545803;-54
2022/04/11 10:33:49;;;;;;;4.40;0.70;;;;;;;8.97;54.38;100743.96;105714;1279;23191;-53
2022/04/11 10:36:36;;;;;;;3.50;0.60;;;;;;;9.07;52.98;100746.46;105732;1280;22601;-51
2022/04/11 10:39:29;;;;;;;4.60;0.60;;;;;;;9.05;52.54;100744.60;105438;1280;22634;-57
2022/04/11 10:42:26;;;;;;;6.20;0.50;;;;;;;9.02;52.41;100745.93;105641;1280;24258;-54
2022/04/11 10:44:59;;;;;;;4.80;0.60;;;;;;;8.99;52.65;100743.88;105242;1278;516589;-56
2022/04/11 10:47:38;;;;;;;4.00;0.50;;;;;;;9.00;52.45;100743.14;105794;1277;26488;-52
2022/04/11 10:50:34;;;;;;;4.70;0.40;;;;;;;8.96;51.41;100741.83;105764;1277;25608;-55
2022/04/11 10:53:26;;;;;;;3.90;0.60;;;;;;;8.92;51.31;100739.36;105735;1277;22655;-57
2022/04/11 10:56:02;;;;;;;4.00;0.40;;;;;;;8.86;51.23;100738.48;105973;1278;25640;-55
2022/04/11 10:58:49;;;;;;;2.30;0.40;;;;;;;8.81;50.73;100738.98;105853;1277;22660;-57
2022/04/11 11:01:57;;;;;;;3.50;0.40;;;;;;;8.82;51.30;100737.70;105731;1277;22621;-55
2022/04/11 11:04:34;;;;;;;2.50;0.40;;;;;;;8.78;50.28;100731.23;105842;1274;23106;-54
2022/04/11 11:07:26;;;;;;;2.70;0.30;;;;;;;8.76;50.75;100730.13;105817;1274;24256;-51
2022/04/11 11:10:03;;;;;;;6.10;0.50;;;;;;;8.79;49.75;100726.88;105885;1274;23489;-54
2022/04/11 11:12:34;;;;;;;3.30;0.50;;;;;;;8.88;50.82;100726.25;106050;1274;25345;-52
2022/04/11 11:15:30;;;;;;;8.20;0.70;;;;;;;9.06;50.25;100729.63;106028;1274;25661;-52
2022/04/11 11:18:02;;;;;;;5.80;0.50;;;;;;;9.18;50.08;100728.09;105922;1274;24051;-52
2022/04/11 11:20:49;;;;;;;3.40;0.50;;;;;;;9.22;50.22;100727.62;106230;1271;24798;-55
2022/04/11 11:23:27;;;;;;;3.60;0.70;;;;;;;9.22;50.91;100731.27;106269;1271;22552;-52
2022/04/11 11:26:09;;;;;;;4.60;1.00;;;;;;;9.16;50.88;100733.41;106204;1271;24532;-53
2022/04/11 11:28:44;;;;;;;3.80;0.50;;;;;;;9.15;50.95;100728.48;106293;1271;25348;-53
2022/04/11 11:31:15;;;;;;;4.20;0.60;;;;;;;9.17;51.05;100727.34;106213;1271;22573;-53
2022/04/11 11:33:52;;;;;;;6.50;1.00;;;;;;;9.24;51.07;100723.95;106139;1271;22561;-51
2022/04/11 11:36:32;;;;;;;4.30;0.60;;;;;;;9.33;50.97;100717.97;106052;1271;22715;-54
2022/04/11 11:39:11;;;;;;;4.90;0.60;;;;;;;9.43;50.19;100720.39;106129;1271;22667;-55
2022/04/11 11:41:43;;;;;;;2.10;0.50;;;;;;;9.55;48.83;100723.73;106219;1271;22614;-52
2022/04/11 11:44:15;;;;;;;3.40;0.60;;;;;;;9.61;49.51;100719.89;106163;1271;22581;-51
2022/04/11 11:46:56;;;;;;;3.70;0.50;;;;;;;9.65;48.92;100718.16;106223;1271;26498;-52
2022/04/11 11:49:28;;;;;;;5.80;0.50;;;;;;;9.65;48.79;100715.52;106341;1271;22713;-54
2022/04/11 11:52:00;;;;;;;5.30;0.50;;;;;;;9.60;48.62;100710.06;106147;1271;26732;-50
2022/04/11 11:54:39;;;;;;;3.60;0.40;;;;;;;9.52;48.64;100707.62;106192;1271;24422;-53